Aviation Digital Data Service (ADDS)

Output produced by METARs form (1817 UTC 19 April 2019)
found at http://www.aviationweather.gov/metar/data/
 
Forecast for: VEIM (IMPHAL/TULIHAL , IN)
Text: TAF VEIM 191700Z 1918/2003 00000KT 2000 BR SCT018 BKN090
Forecast period: 1800 UTC 19 April 2019 to 0300 UTC 20 April 2019
Forecast type: FROM: standard forecast or significant change
Winds: calm
Visibility: 1.24 miles (2.00 km)
Ceiling: 9000 feet AGL
Clouds: scattered clouds at 1800 feet AGL
broken clouds at 9000 feet AGL
Weather: BR  (mist)